Seaspan Saigon — VRBT7 — position and weather

sailwx.info

Track history (hours):
 
Tides and Currents Weather Stations Pressure Air Temp Water Temp Dewpoint Dewpoint Depression Visibility Wind Speed Wind Dir Waves Ship Positions

Seaspan Saigon

Last reported at 2016-Jun-24 18:00 UTC. Time now 2016-Jun-25 03:34 UTC.
Position N 32°54' W 058°30'.

Length 260 m; draft 11.3 m.

Type: Ship (hazmat cat A). MMSI: 477106800.

Wind from 180 at 9 knots

Waves 1.5 meters (5 feet), 3 second period

Barometer 1032.0 mb
Air temperature 27.0 ° C
Visibility: greater than 10.8 NM
Dewpoint 22.6 ° C

Date/timePositionNaut miles runAvg speedWind from/ knotsBaromVisibWave heightAir tempDewpointWater temp
2016-Jun-24 18:00N 32°54' W 058°30'35414.8 180 / 91032.010.8 1.527.022.6
2016-Jun-23 18:00N 30°48' W 065°00'55615.4 180 / 101025.010.8 1.028.025.228.0
2016-Jun-22 06:00N 26°54' W 074°36'25314.4 120 / 131021.010.8 1.528.023.729.0
2016-Jun-21 12:27N 26°11' W 079°14'1314.7
2016-Jun-21 11:33N 26°02' W 079°25'1716.6
2016-Jun-21 10:33N 25°46' W 079°27'11214.8
2016-Jun-21 03:00N 24°06' W 080°24'58912.4 070 / 181018.010.8 2.028.025.2
2016-Jun-19 03:32N 29°27' W 089°37'1716.9
2016-Jun-19 02:33N 29°36' W 089°53'1312.1
2016-Jun-19 01:30N 29°47' W 090°01'9 1.7
2016-Jun-18 20:14N 29°55' W 090°07'0 0.0
2016-Jun-18 19:32N 29°55' W 090°07'0 0.0
2016-Jun-18 18:32N 29°55' W 090°07'0 0.0
2016-Jun-18 17:32N 29°55' W 090°07'0 0.0
2016-Jun-18 16:32N 29°55' W 090°07'0 0.0
2016-Jun-18 15:32N 29°55' W 090°07'4 0.8
2016-Jun-18 10:33N 29°57' W 090°03'9 9.2
2016-Jun-18 09:33N 29°52' W 089°54'7 6.9
2016-Jun-18 08:33N 29°48' W 090°01'178 8.8
2016-Jun-17 12:26N 28°07' W 092°48'3215.9
2016-Jun-17 10:25N 28°28' W 093°16'1416.0
2016-Jun-17 09:31N 28°36' W 093°29'1515.8
2016-Jun-17 08:33N 28°44' W 093°44'1715.6
2016-Jun-17 07:29N 28°51' W 094°01'1515.7
2016-Jun-17 06:33N 28°55' W 094°17'2914.0
2016-Jun-17 04:29N 29°18' W 094°37'1111.5
2016-Jun-17 03:33N 29°22' W 094°48'1312.8
2016-Jun-17 02:34N 29°34' W 094°55'9 8.5
2016-Jun-17 01:33N 29°41' W 094°60'0 0.1
2016-Jun-17 00:31N 29°41' W 095°00'0 0.0
2016-Jun-16 23:34N 29°41' W 095°00'0 0.0
2016-Jun-16 22:33N 29°41' W 095°00'0 0.0
2016-Jun-16 21:33N 29°41' W 095°00'0 0.0
2016-Jun-16 20:33N 29°41' W 095°00'0 0.0
2016-Jun-16 19:33N 29°41' W 095°00'0 0.0
2016-Jun-16 18:33N 29°41' W 095°00'0 0.0
2016-Jun-16 17:28N 29°41' W 095°00'0 0.0
2016-Jun-16 16:33N 29°41' W 095°00'0 0.0
2016-Jun-16 15:33N 29°41' W 095°00'0 0.0
2016-Jun-16 14:32N 29°41' W 095°00'0 0.0
2016-Jun-16 13:33N 29°41' W 095°00'0 0.0
2016-Jun-16 12:33N 29°41' W 095°00'0 0.0
2016-Jun-16 11:33N 29°41' W 095°00'0 0.0
2016-Jun-16 10:34N 29°41' W 095°00'0 0.0
2016-Jun-16 09:32N 29°41' W 095°00'0 0.0
2016-Jun-16 08:33N 29°41' W 095°00'0 0.0
2016-Jun-16 07:33N 29°41' W 095°00'0 0.0
2016-Jun-16 06:33N 29°41' W 095°00'0 0.0
2016-Jun-16 05:33N 29°41' W 095°00'0 0.0
2016-Jun-16 04:33N 29°41' W 095°00'0 0.0
2016-Jun-16 03:33N 29°41' W 095°00'0 0.0
2016-Jun-16 02:33N 29°41' W 095°00'0 0.0
2016-Jun-16 01:32N 29°41' W 095°00'0 0.0
2016-Jun-16 00:33N 29°41' W 095°00'0 0.0
2016-Jun-15 23:34N 29°41' W 095°00'0 0.0
2016-Jun-15 22:33N 29°41' W 095°00'0 0.0
2016-Jun-15 21:33N 29°41' W 095°00'0 0.0
2016-Jun-15 20:33N 29°41' W 095°00'0 0.0
2016-Jun-15 19:33N 29°41' W 095°00'0 0.0
2016-Jun-15 18:33N 29°41' W 095°00'0 0.0
2016-Jun-15 17:33N 29°41' W 095°00'0 0.0
2016-Jun-15 16:33N 29°41' W 095°00'1 1.1
2016-Jun-15 15:33N 29°41' W 094°59'1111.4
2016-Jun-15 14:33N 29°31' W 094°53'  
Track history (hours):
 
Tides and Currents Weather Stations Pressure Air Temp Water Temp Dewpoint Dewpoint Depression Visibility Wind Speed Wind Dir Waves Ship Positions

Seaspan Saigon

Last reported at 2016-Jun-24 18:00 UTC. Time now 2016-Jun-25 03:34 UTC.
Position N 32°54' W 058°30'.

Length 260 m; draft 11.3 m.

Type: Ship (hazmat cat A). MMSI: 477106800.

Wind from 180 at 9 knots

Waves 1.5 meters (5 feet), 3 second period

Barometer 1032.0 mb
Air temperature 27.0 ° C
Visibility: greater than 10.8 NM
Dewpoint 22.6 ° C

Date/timePositionNaut miles runAvg speedWind from/ knotsBaromVisibWave heightAir tempDewpointWater temp
2016-Jun-24 18:00N 32°54' W 058°30'35414.8 180 / 91032.010.8 1.527.022.6
2016-Jun-23 18:00N 30°48' W 065°00'55615.4 180 / 101025.010.8 1.028.025.228.0
2016-Jun-22 06:00N 26°54' W 074°36'25314.4 120 / 131021.010.8 1.528.023.729.0
2016-Jun-21 12:27N 26°11' W 079°14'1314.7
2016-Jun-21 11:33N 26°02' W 079°25'1716.6
2016-Jun-21 10:33N 25°46' W 079°27'11214.8
2016-Jun-21 03:00N 24°06' W 080°24'58912.4 070 / 181018.010.8 2.028.025.2
2016-Jun-19 03:32N 29°27' W 089°37'1716.9
2016-Jun-19 02:33N 29°36' W 089°53'1312.1
2016-Jun-19 01:30N 29°47' W 090°01'9 1.7
2016-Jun-18 20:14N 29°55' W 090°07'0 0.0
2016-Jun-18 19:32N 29°55' W 090°07'0 0.0
2016-Jun-18 18:32N 29°55' W 090°07'0 0.0
2016-Jun-18 17:32N 29°55' W 090°07'0 0.0
2016-Jun-18 16:32N 29°55' W 090°07'0 0.0
2016-Jun-18 15:32N 29°55' W 090°07'4 0.8
2016-Jun-18 10:33N 29°57' W 090°03'9 9.2
2016-Jun-18 09:33N 29°52' W 089°54'7 6.9
2016-Jun-18 08:33N 29°48' W 090°01'178 8.8
2016-Jun-17 12:26N 28°07' W 092°48'3215.9
2016-Jun-17 10:25N 28°28' W 093°16'1416.0
2016-Jun-17 09:31N 28°36' W 093°29'1515.8
2016-Jun-17 08:33N 28°44' W 093°44'1715.6
2016-Jun-17 07:29N 28°51' W 094°01'1515.7
2016-Jun-17 06:33N 28°55' W 094°17'2914.0
2016-Jun-17 04:29N 29°18' W 094°37'1111.5
2016-Jun-17 03:33N 29°22' W 094°48'1312.8
2016-Jun-17 02:34N 29°34' W 094°55'9 8.5
2016-Jun-17 01:33N 29°41' W 094°60'0 0.1
2016-Jun-17 00:31N 29°41' W 095°00'0 0.0
2016-Jun-16 23:34N 29°41' W 095°00'0 0.0
2016-Jun-16 22:33N 29°41' W 095°00'0 0.0
2016-Jun-16 21:33N 29°41' W 095°00'0 0.0
2016-Jun-16 20:33N 29°41' W 095°00'0 0.0
2016-Jun-16 19:33N 29°41' W 095°00'0 0.0
2016-Jun-16 18:33N 29°41' W 095°00'0 0.0
2016-Jun-16 17:28N 29°41' W 095°00'0 0.0
2016-Jun-16 16:33N 29°41' W 095°00'0 0.0
2016-Jun-16 15:33N 29°41' W 095°00'0 0.0
2016-Jun-16 14:32N 29°41' W 095°00'0 0.0
2016-Jun-16 13:33N 29°41' W 095°00'0 0.0
2016-Jun-16 12:33N 29°41' W 095°00'0 0.0
2016-Jun-16 11:33N 29°41' W 095°00'0 0.0
2016-Jun-16 10:34N 29°41' W 095°00'0 0.0
2016-Jun-16 09:32N 29°41' W 095°00'0 0.0
2016-Jun-16 08:33N 29°41' W 095°00'0 0.0
2016-Jun-16 07:33N 29°41' W 095°00'0 0.0
2016-Jun-16 06:33N 29°41' W 095°00'0 0.0
2016-Jun-16 05:33N 29°41' W 095°00'0 0.0
2016-Jun-16 04:33N 29°41' W 095°00'0 0.0
2016-Jun-16 03:33N 29°41' W 095°00'0 0.0
2016-Jun-16 02:33N 29°41' W 095°00'0 0.0
2016-Jun-16 01:32N 29°41' W 095°00'0 0.0
2016-Jun-16 00:33N 29°41' W 095°00'0 0.0
2016-Jun-15 23:34N 29°41' W 095°00'0 0.0
2016-Jun-15 22:33N 29°41' W 095°00'0 0.0
2016-Jun-15 21:33N 29°41' W 095°00'0 0.0
2016-Jun-15 20:33N 29°41' W 095°00'0 0.0
2016-Jun-15 19:33N 29°41' W 095°00'0 0.0
2016-Jun-15 18:33N 29°41' W 095°00'0 0.0
2016-Jun-15 17:33N 29°41' W 095°00'0 0.0
2016-Jun-15 16:33N 29°41' W 095°00'1 1.1
2016-Jun-15 15:33N 29°41' W 094°59'1111.4
2016-Jun-15 14:33N 29°31' W 094°53'  

Dump ship's entire track history